createdAt,value
2022-11-17T00:00:50.282Z,2.88
2022-11-17T00:03:20.226Z,2.35
2022-11-17T00:05:50.076Z,3.40
2022-11-17T00:08:19.942Z,2.70
2022-11-17T00:10:52.406Z,2.53
2022-11-17T00:13:34.866Z,2.72
2022-11-17T00:16:04.944Z,3.33
2022-11-17T00:18:47.181Z,3.33
2022-11-17T00:21:24.039Z,2.88
2022-11-17T00:23:53.992Z,3.45
2022-11-17T00:26:29.145Z,2.90
2022-11-17T00:29:00.236Z,3.15
2022-11-17T00:31:44.346Z,3.03
2022-11-17T00:34:16.442Z,3.33
2022-11-17T00:36:48.155Z,3.38
2022-11-17T00:39:19.085Z,2.92
2022-11-17T00:41:51.957Z,3.13
2022-11-17T00:44:22.634Z,3.22
2022-11-17T00:46:52.574Z,3.35
2022-11-17T00:49:25.386Z,3.88
2022-11-17T00:51:55.727Z,3.63
2022-11-17T00:54:25.840Z,4.78
2022-11-17T00:56:58.507Z,6.47
2022-11-17T00:59:28.368Z,5.88
2022-11-17T01:01:58.588Z,4.30
2022-11-17T01:04:28.506Z,3.90
2022-11-17T01:06:58.399Z,3.38
2022-11-17T01:09:28.578Z,3.53
2022-11-17T01:12:01.065Z,3.30
2022-11-17T01:14:32.870Z,3.60
2022-11-17T01:17:02.748Z,3.53
2022-11-17T01:19:32.642Z,3.03
2022-11-17T01:22:02.513Z,3.38
2022-11-17T01:24:32.746Z,3.05
2022-11-17T01:27:05.231Z,3.13
2022-11-17T01:29:35.344Z,2.97
2022-11-17T01:32:06.135Z,2.78
2022-11-17T01:34:36.517Z,2.10
2022-11-17T01:37:18.793Z,2.42
2022-11-17T01:39:48.881Z,2.80
2022-11-17T01:42:24.494Z,2.20
2022-11-17T01:45:03.115Z,2.20
2022-11-17T01:47:40.635Z,3.38
2022-11-17T01:50:16.023Z,3.60
2022-11-17T01:52:46.071Z,2.47
2022-11-17T01:55:16.152Z,2.60
2022-11-17T01:57:52.136Z,3.10
2022-11-17T02:00:22.329Z,2.58
2022-11-17T02:02:52.625Z,2.70
2022-11-17T02:05:32.893Z,3.08
2022-11-17T02:08:04.535Z,2.78
2022-11-17T02:10:35.023Z,3.35
2022-11-17T02:13:07.744Z,2.13
2022-11-17T02:15:37.681Z,2.58
2022-11-17T02:18:08.202Z,3.20
2022-11-17T02:20:54.913Z,2.00
2022-11-17T02:23:54.435Z,2.22
2022-11-17T02:26:53.496Z,2.45
2022-11-17T02:29:30.697Z,2.55
2022-11-17T02:32:08.017Z,2.83
2022-11-17T02:34:42.716Z,2.70
2022-11-17T02:37:19.245Z,2.95
2022-11-17T02:39:53.851Z,2.92
2022-11-17T02:42:50.731Z,2.88
2022-11-17T02:45:23.565Z,3.13
2022-11-17T02:47:57.133Z,2.40
2022-11-17T02:50:28.948Z,3.53
2022-11-17T02:52:59.507Z,2.75
2022-11-17T02:55:33.318Z,2.75
2022-11-17T02:58:03.858Z,3.20
2022-11-17T03:00:38.316Z,3.15
2022-11-17T03:03:19.557Z,3.05
2022-11-17T03:05:59.221Z,2.88
2022-11-17T03:08:36.278Z,3.50
2022-11-17T03:11:07.480Z,2.92
2022-11-17T03:13:47.052Z,3.38
2022-11-17T03:16:28.976Z,3.40
2022-11-17T03:19:06.275Z,3.40
2022-11-17T03:21:41.597Z,2.80
2022-11-17T03:24:15.777Z,3.30
2022-11-17T03:26:48.529Z,2.83
2022-11-17T03:29:20.679Z,2.95
2022-11-17T03:31:56.829Z,3.22
2022-11-17T03:34:28.232Z,2.85
2022-11-17T03:37:02.354Z,2.53
2022-11-17T03:39:36.153Z,2.60
2022-11-17T03:42:09.836Z,2.80
2022-11-17T03:44:42.180Z,3.33
2022-11-17T03:47:15.796Z,2.63
2022-11-17T03:49:49.746Z,3.20
2022-11-17T03:52:19.668Z,2.47
2022-11-17T03:54:50.797Z,3.17
2022-11-17T03:57:24.567Z,2.28
2022-11-17T03:59:57.722Z,3.00
2022-11-17T04:02:30.789Z,2.75
2022-11-17T04:05:09.617Z,3.08
2022-11-17T04:07:41.986Z,2.65
2022-11-17T04:10:13.844Z,3.35
2022-11-17T04:12:56.197Z,2.35
2022-11-17T04:15:50.878Z,2.75
2022-11-17T04:18:25.127Z,2.75
2022-11-17T04:20:56.349Z,2.83
2022-11-17T04:23:28.221Z,3.15
2022-11-17T04:26:14.129Z,2.83
2022-11-17T04:28:47.142Z,2.70
2022-11-17T04:31:18.568Z,3.05
2022-11-17T04:33:52.206Z,2.58
2022-11-17T04:36:23.334Z,3.03
2022-11-17T04:38:54.941Z,3.10
2022-11-17T04:41:38.509Z,2.90
2022-11-17T04:44:09.769Z,2.63
2022-11-17T04:46:40.988Z,3.10
2022-11-17T04:49:14.451Z,2.78
2022-11-17T04:51:44.658Z,2.78
2022-11-17T04:54:16.981Z,2.80
2022-11-17T04:56:48.164Z,3.33
2022-11-17T04:59:18.880Z,3.03
2022-11-17T05:01:49.170Z,3.30
2022-11-17T05:04:43.130Z,3.45
2022-11-17T05:07:13.523Z,3.00
2022-11-17T05:09:43.705Z,2.45
2022-11-17T05:12:25.964Z,2.75
2022-11-17T05:14:55.945Z,2.72
2022-11-17T05:17:23.187Z,3.05
2022-11-17T05:19:56.622Z,3.28
2022-11-17T05:22:39.256Z,2.35
2022-11-17T05:25:11.099Z,3.25
2022-11-17T05:27:41.377Z,2.78
2022-11-17T05:30:13.252Z,2.70
2022-11-17T05:32:44.196Z,2.45
2022-11-17T05:35:16.968Z,2.17
2022-11-17T05:37:47.886Z,2.63
2022-11-17T05:40:18.577Z,1.50
2022-11-17T05:42:51.810Z,2.97
2022-11-17T05:45:25.927Z,2.83
2022-11-17T05:47:57.629Z,3.20
2022-11-17T05:50:30.487Z,2.78
2022-11-17T05:53:06.330Z,2.72
2022-11-17T05:55:36.572Z,3.35
2022-11-17T05:58:08.418Z,2.70
2022-11-17T06:00:40.141Z,3.03
2022-11-17T06:03:13.241Z,3.90
2022-11-17T06:05:46.992Z,3.45
2022-11-17T06:08:17.281Z,3.38
2022-11-17T06:10:47.846Z,3.10
2022-11-17T06:13:20.266Z,3.28
2022-11-17T06:15:50.113Z,3.53
2022-11-17T06:18:24.437Z,3.17
2022-11-17T06:20:58.335Z,3.75
2022-11-17T06:23:30.184Z,4.32
2022-11-17T06:26:00.721Z,3.20
2022-11-17T06:28:32.101Z,2.60
2022-11-17T06:31:03.756Z,3.47
2022-11-17T06:33:35.116Z,3.17
2022-11-17T06:36:09.384Z,3.78
2022-11-17T06:38:40.386Z,3.95
2022-11-17T06:41:12.245Z,3.13
2022-11-17T06:43:43.175Z,3.85
2022-11-17T06:46:14.749Z,3.83
2022-11-17T06:48:46.233Z,3.88
2022-11-17T06:51:19.921Z,4.32
2022-11-17T06:53:49.936Z,3.70
2022-11-17T06:56:19.774Z,3.95
2022-11-17T06:58:49.628Z,3.03
2022-11-17T07:01:19.959Z,3.17
2022-11-17T07:03:49.962Z,3.10
2022-11-17T07:06:22.494Z,4.03
2022-11-17T07:08:52.822Z,3.95
2022-11-17T07:11:23.653Z,3.63
2022-11-17T07:13:53.742Z,3.58
2022-11-17T07:16:24.247Z,3.10
2022-11-17T07:18:55.583Z,3.60
2022-11-17T07:21:28.329Z,3.28
2022-11-17T07:23:58.401Z,4.88
2022-11-17T07:26:28.692Z,3.95
2022-11-17T07:28:59.107Z,3.30
2022-11-17T07:31:29.655Z,3.38
2022-11-17T07:34:00.087Z,3.05
2022-11-17T07:36:34.418Z,3.17
2022-11-17T07:39:04.847Z,3.67
2022-11-17T07:41:36.004Z,3.42
2022-11-17T07:44:06.816Z,3.30
2022-11-17T07:46:37.389Z,3.05
2022-11-17T07:49:07.745Z,4.03
2022-11-17T07:51:40.584Z,4.43
2022-11-17T07:54:11.228Z,2.97
2022-11-17T07:56:41.969Z,3.72
2022-11-17T07:59:17.155Z,3.50
2022-11-17T08:01:51.028Z,4.00
2022-11-17T08:04:21.852Z,3.42
2022-11-17T08:06:54.424Z,4.10
2022-11-17T08:09:25.064Z,3.65
2022-11-17T08:11:54.947Z,1.77
2022-11-17T08:14:25.555Z,3.03
2022-11-17T08:16:55.440Z,4.82
2022-11-17T08:19:25.343Z,3.10
2022-11-17T08:21:57.937Z,2.63
2022-11-17T08:24:27.817Z,4.43
2022-11-17T08:26:57.757Z,2.70
2022-11-17T08:29:27.623Z,3.60
2022-11-17T08:31:57.580Z,3.65
2022-11-17T08:34:27.946Z,3.00
2022-11-17T08:37:01.256Z,3.30
2022-11-17T08:39:32.337Z,3.33
2022-11-17T08:42:02.969Z,2.70
2022-11-17T08:44:33.080Z,2.53
2022-11-17T08:47:03.213Z,4.00
2022-11-17T08:49:33.101Z,3.22
2022-11-17T08:52:05.916Z,3.30
2022-11-17T08:54:35.917Z,2.53
2022-11-17T08:57:06.629Z,2.90
2022-11-17T08:59:36.582Z,2.72
2022-11-17T09:02:06.541Z,2.90
2022-11-17T09:04:36.829Z,2.30
2022-11-17T09:07:09.741Z,3.53
2022-11-17T09:09:39.969Z,2.22
2022-11-17T09:12:10.048Z,2.25
2022-11-17T09:14:40.803Z,3.28
2022-11-17T09:17:11.465Z,2.90
2022-11-17T09:19:42.472Z,2.80
2022-11-17T09:22:16.076Z,3.25
2022-11-17T09:24:45.920Z,3.22
2022-11-17T09:27:16.627Z,3.30
2022-11-17T09:29:46.696Z,3.38
2022-11-17T09:32:17.600Z,3.05
2022-11-17T09:34:47.529Z,2.85
2022-11-17T09:37:20.552Z,3.55
2022-11-17T09:39:50.768Z,3.80
2022-11-17T09:42:23.034Z,3.33
2022-11-17T09:44:58.011Z,4.10
2022-11-17T09:47:36.352Z,2.58
2022-11-17T09:50:08.996Z,3.35
2022-11-17T09:52:51.269Z,3.55
2022-11-17T09:55:33.753Z,3.22
2022-11-17T09:58:12.010Z,4.63
2022-11-17T10:00:47.819Z,4.30
2022-11-17T10:03:23.283Z,4.25
2022-11-17T10:05:54.394Z,3.90
2022-11-17T10:08:35.648Z,3.97
2022-11-17T10:11:28.116Z,4.72
2022-11-17T10:13:58.948Z,4.10
2022-11-17T10:16:29.410Z,4.82
2022-11-17T10:19:00.100Z,4.10
2022-11-17T10:21:33.130Z,4.22
2022-11-17T10:24:06.858Z,4.18
2022-11-17T10:26:48.116Z,2.10
2022-11-17T10:29:19.346Z,3.70
2022-11-17T10:31:50.613Z,3.28
2022-11-17T10:34:40.582Z,3.15
2022-11-17T10:37:30.239Z,2.60
2022-11-17T10:40:23.664Z,3.15
2022-11-17T10:43:01.124Z,3.47
2022-11-17T10:45:32.567Z,3.63
2022-11-17T10:48:13.617Z,2.97
2022-11-17T10:50:55.287Z,4.15
2022-11-17T10:53:31.408Z,3.92
2022-11-17T10:56:07.311Z,3.65
2022-11-17T10:58:59.524Z,1.30
2022-11-17T11:01:35.415Z,2.47
2022-11-17T11:04:06.939Z,3.70
2022-11-17T11:06:38.242Z,3.53
2022-11-17T11:09:15.755Z,3.45
2022-11-17T11:11:51.617Z,3.72
2022-11-17T11:14:25.692Z,4.05
2022-11-17T11:16:55.696Z,4.82
2022-11-17T11:19:27.087Z,4.35
2022-11-17T11:22:20.838Z,4.70
2022-11-17T11:24:55.336Z,4.30
2022-11-17T11:27:44.165Z,6.75
2022-11-17T11:30:16.084Z,4.47
2022-11-17T11:32:58.549Z,4.30
2022-11-17T11:35:59.713Z,4.10
2022-11-17T11:38:41.492Z,5.25
2022-11-17T11:41:24.600Z,4.30
2022-11-17T11:44:05.923Z,5.68
2022-11-17T11:46:42.665Z,4.22
2022-11-17T11:49:19.495Z,4.30
2022-11-17T11:51:52.623Z,4.13
2022-11-17T11:54:30.356Z,6.78
2022-11-17T11:57:01.693Z,4.25
2022-11-17T11:59:42.602Z,5.07
2022-11-17T12:02:24.223Z,5.22
2022-11-17T12:05:02.284Z,5.00
2022-11-17T12:07:40.276Z,5.25
2022-11-17T12:10:16.680Z,3.58
2022-11-17T12:12:49.967Z,5.88
2022-11-17T12:15:43.983Z,4.55
2022-11-17T12:18:16.726Z,7.20
2022-11-17T12:21:01.703Z,5.53
2022-11-17T12:24:06.221Z,5.63
2022-11-17T12:26:37.029Z,4.97
2022-11-17T12:29:32.857Z,3.90
2022-11-17T12:32:06.607Z,6.18
2022-11-17T12:34:38.700Z,6.10
2022-11-17T12:37:21.920Z,5.40
2022-11-17T12:40:03.391Z,4.88
2022-11-17T12:42:34.735Z,6.15
2022-11-17T12:45:10.639Z,3.38
2022-11-17T12:48:04.843Z,5.40
2022-11-17T12:50:49.460Z,63.75
2022-11-17T12:53:29.538Z,8.05
2022-11-17T12:56:19.246Z,14.02
2022-11-17T12:59:19.976Z,7.25
2022-11-17T13:01:55.941Z,9.05
2022-11-17T13:04:36.710Z,6.15
2022-11-17T13:07:10.344Z,6.50
2022-11-17T13:09:40.825Z,7.07
2022-11-17T13:12:14.068Z,5.93
2022-11-17T13:14:57.315Z,9.55
2022-11-17T13:17:31.684Z,11.10
2022-11-17T13:20:07.880Z,3.55
2022-11-17T13:22:42.054Z,8.43
2022-11-17T13:25:20.635Z,6.43
2022-11-17T13:27:56.014Z,6.78
2022-11-17T13:30:30.246Z,4.28
2022-11-17T13:33:04.753Z,9.43
2022-11-17T13:35:38.684Z,9.20
2022-11-17T13:38:15.316Z,10.45
2022-11-17T13:40:46.709Z,9.80
2022-11-17T13:43:20.531Z,7.10
2022-11-17T13:45:51.614Z,6.45
2022-11-17T13:48:35.594Z,5.70
2022-11-17T13:51:25.466Z,7.95
2022-11-17T13:53:57.487Z,7.28
2022-11-17T13:56:34.650Z,7.85
2022-11-17T13:59:07.076Z,12.65
2022-11-17T14:01:38.921Z,6.60
2022-11-17T14:04:22.109Z,8.52
2022-11-17T14:07:04.816Z,9.90
2022-11-17T14:09:37.327Z,6.78
2022-11-17T14:12:12.507Z,5.40
2022-11-17T14:14:46.339Z,12.50
2022-11-17T14:17:21.952Z,21.92
2022-11-17T14:19:53.039Z,18.45
2022-11-17T14:22:31.837Z,21.77
2022-11-17T14:25:03.879Z,18.02
2022-11-17T14:27:43.551Z,28.25
2022-11-17T14:30:17.180Z,17.48
2022-11-17T14:32:48.623Z,78.88
2022-11-17T14:35:19.492Z,10.02
2022-11-17T14:37:52.114Z,6.30
2022-11-17T14:40:23.111Z,11.20
2022-11-17T14:42:53.069Z,13.95
2022-11-17T14:45:24.134Z,12.20
2022-11-17T14:47:56.396Z,12.27
2022-11-17T14:50:26.916Z,11.98
2022-11-17T14:52:59.907Z,9.05
2022-11-17T14:55:30.706Z,12.90
2022-11-17T14:58:00.757Z,12.00
2022-11-17T15:00:31.064Z,10.23
2022-11-17T15:03:01.942Z,11.55
2022-11-17T15:05:32.236Z,11.10
2022-11-17T15:08:05.051Z,17.92
2022-11-17T15:10:36.039Z,29.33
2022-11-17T15:13:07.344Z,24.25
2022-11-17T15:15:37.267Z,14.63
2022-11-17T15:18:07.919Z,21.33
2022-11-17T15:20:38.527Z,21.42
2022-11-17T15:23:11.436Z,77.55
2022-11-17T15:25:42.238Z,15.45
2022-11-17T15:28:18.900Z,10.10
2022-11-17T15:30:51.417Z,9.88
2022-11-17T15:33:22.218Z,13.13
2022-11-17T15:35:54.804Z,16.05
2022-11-17T15:38:28.116Z,12.57
2022-11-17T15:40:58.488Z,15.73
2022-11-17T15:43:30.357Z,15.50
2022-11-17T15:46:04.089Z,18.98
2022-11-17T15:48:34.952Z,20.20
2022-11-17T15:51:06.404Z,23.38
2022-11-17T15:53:39.855Z,26.20
2022-11-17T15:56:11.539Z,16.00
2022-11-17T15:58:43.215Z,15.73
2022-11-17T16:01:15.360Z,14.50
2022-11-17T16:03:46.758Z,39.58
2022-11-17T16:06:16.721Z,20.63
2022-11-17T16:08:49.233Z,43.60
2022-11-17T16:11:20.550Z,54.17
2022-11-17T16:13:50.582Z,21.98
2022-11-17T16:16:20.395Z,54.35
2022-11-17T16:18:50.366Z,39.03
2022-11-17T16:21:21.360Z,45.47
2022-11-17T16:23:56.056Z,34.67
2022-11-17T16:26:27.736Z,37.20
2022-11-17T16:29:00.767Z,17.90
2022-11-17T16:31:31.987Z,16.58
2022-11-17T16:34:03.007Z,10.07
2022-11-17T16:36:36.841Z,9.90
2022-11-17T16:39:11.933Z,9.07
2022-11-17T16:41:45.430Z,12.55
2022-11-17T16:44:17.976Z,15.98
2022-11-17T16:46:49.884Z,14.98
2022-11-17T16:49:22.511Z,16.50
2022-11-17T16:51:54.545Z,19.45
2022-11-17T16:54:27.000Z,19.58
2022-11-17T16:56:56.792Z,17.42
2022-11-17T16:59:26.777Z,16.65
2022-11-17T17:01:56.669Z,18.00
2022-11-17T17:04:26.961Z,11.32
2022-11-17T17:06:56.855Z,20.50
2022-11-17T17:09:29.768Z,19.95
2022-11-17T17:12:00.012Z,11.98
2022-11-17T17:14:29.899Z,12.13
2022-11-17T17:16:59.895Z,11.43
2022-11-17T17:19:30.363Z,10.15
2022-11-17T17:22:00.184Z,11.68
2022-11-17T17:24:32.739Z,10.77
2022-11-17T17:27:02.588Z,9.63
2022-11-17T17:29:32.446Z,14.88
2022-11-17T17:32:02.333Z,14.93
2022-11-17T17:34:32.783Z,12.13
2022-11-17T17:37:02.805Z,14.18
2022-11-17T17:39:35.315Z,13.65
2022-11-17T17:42:06.131Z,11.48
2022-11-17T17:44:35.948Z,7.88
2022-11-17T17:47:05.797Z,11.23
2022-11-17T17:49:35.575Z,10.07
2022-11-17T17:52:08.482Z,10.70
2022-11-17T17:54:45.355Z,12.38
2022-11-17T17:57:15.197Z,9.38
2022-11-17T17:59:45.836Z,10.00
2022-11-17T18:02:15.680Z,12.15
2022-11-17T18:04:46.235Z,10.90
2022-11-17T18:07:16.189Z,11.88
2022-11-17T18:09:48.885Z,11.35
2022-11-17T18:12:18.820Z,11.38
2022-11-17T18:14:48.772Z,9.57
2022-11-17T18:17:18.678Z,10.90
2022-11-17T18:19:49.152Z,12.10
2022-11-17T18:22:19.003Z,10.13
2022-11-17T18:24:54.763Z,9.40
2022-11-17T18:27:27.281Z,8.93
2022-11-17T18:29:57.185Z,10.10
2022-11-17T18:32:27.041Z,9.80
2022-11-17T18:34:56.952Z,10.75
2022-11-17T18:37:26.796Z,10.25
2022-11-17T18:39:59.408Z,10.13
2022-11-17T18:42:30.628Z,8.27
2022-11-17T18:45:00.477Z,9.85
2022-11-17T18:47:31.140Z,10.13
2022-11-17T18:50:01.029Z,8.88
2022-11-17T18:52:31.666Z,8.50
2022-11-17T18:55:05.297Z,8.88
2022-11-17T18:57:35.445Z,9.55
2022-11-17T19:00:07.303Z,7.95
2022-11-17T19:02:37.682Z,8.13
2022-11-17T19:05:08.157Z,8.85
2022-11-17T19:07:38.522Z,8.05
2022-11-17T19:10:12.381Z,8.38
2022-11-17T19:12:42.942Z,8.93
2022-11-17T19:15:13.438Z,10.25
2022-11-17T19:17:43.291Z,8.20
2022-11-17T19:20:14.188Z,8.40
2022-11-17T19:22:44.804Z,7.07
2022-11-17T19:25:17.582Z,9.68
2022-11-17T19:27:47.541Z,11.20
2022-11-17T19:30:17.830Z,11.10
2022-11-17T19:32:47.759Z,10.38
2022-11-17T19:35:22.487Z,28.90
2022-11-17T19:37:52.887Z,15.50
2022-11-17T19:40:25.370Z,12.55
2022-11-17T19:42:55.171Z,9.75
2022-11-17T19:45:25.068Z,7.90
2022-11-17T19:47:54.902Z,9.48
2022-11-17T19:50:25.827Z,10.80
2022-11-17T19:52:55.785Z,15.05
2022-11-17T19:55:28.241Z,19.50
2022-11-17T19:57:59.337Z,27.38
2022-11-17T20:00:30.411Z,23.20
2022-11-17T20:03:00.232Z,32.47
2022-11-17T20:05:30.119Z,20.42
2022-11-17T20:07:59.951Z,13.90
2022-11-17T20:10:34.417Z,13.60
2022-11-17T20:13:05.350Z,12.32
2022-11-17T20:15:36.715Z,15.52
2022-11-17T20:18:06.613Z,14.88
2022-11-17T20:20:36.453Z,12.93
2022-11-17T20:23:08.568Z,13.68
2022-11-17T20:25:42.878Z,13.23
2022-11-17T20:28:12.731Z,13.48
2022-11-17T20:30:43.033Z,13.13
2022-11-17T20:33:13.101Z,13.73
2022-11-17T20:35:44.245Z,12.50
2022-11-17T20:38:15.910Z,14.43
2022-11-17T20:40:48.484Z,13.52
2022-11-17T20:43:19.178Z,12.48
2022-11-17T20:45:49.020Z,14.13
2022-11-17T20:48:18.844Z,11.60
2022-11-17T20:50:58.406Z,12.63
2022-11-17T20:53:29.006Z,10.93
2022-11-17T20:56:02.460Z,11.68
2022-11-17T20:58:33.770Z,12.30
2022-11-17T21:01:10.068Z,12.63
2022-11-17T21:03:40.259Z,12.50
2022-11-17T21:06:11.650Z,14.70
2022-11-17T21:08:43.571Z,20.92
2022-11-17T21:11:38.540Z,25.25
2022-11-17T21:14:10.207Z,21.20
2022-11-17T21:16:41.121Z,24.23
2022-11-17T21:19:11.828Z,14.60
2022-11-17T21:21:42.597Z,13.95
2022-11-17T21:24:13.097Z,12.52
2022-11-17T21:26:45.638Z,15.18
2022-11-17T21:29:15.812Z,18.00
2022-11-17T21:31:45.614Z,13.38
2022-11-17T21:34:19.244Z,17.40
2022-11-17T21:36:49.054Z,17.20
2022-11-17T21:39:20.053Z,15.27
2022-11-17T21:41:52.518Z,16.25
2022-11-17T21:44:22.900Z,13.52
2022-11-17T21:46:52.838Z,14.98
2022-11-17T21:49:22.654Z,13.20
2022-11-17T21:51:53.258Z,16.25
2022-11-17T21:54:23.442Z,15.43
2022-11-17T21:56:55.896Z,14.15
2022-11-17T21:59:25.800Z,14.65
2022-11-17T22:01:55.891Z,16.75
2022-11-17T22:04:26.359Z,16.00
2022-11-17T22:06:56.252Z,13.60
2022-11-17T22:09:26.208Z,12.93
2022-11-17T22:11:58.656Z,13.00
2022-11-17T22:14:29.509Z,13.45
2022-11-17T22:17:00.691Z,15.00
2022-11-17T22:19:31.121Z,14.27
2022-11-17T22:22:00.956Z,12.60
2022-11-17T22:24:31.130Z,13.82
2022-11-17T22:27:03.870Z,12.27
2022-11-17T22:29:33.680Z,13.60
2022-11-17T22:32:04.099Z,16.20
2022-11-17T22:34:33.936Z,13.07
2022-11-17T22:37:04.353Z,12.50
2022-11-17T22:39:34.371Z,12.57
2022-11-17T22:42:07.097Z,13.50
2022-11-17T22:44:36.925Z,10.88
2022-11-17T22:47:06.771Z,14.52
2022-11-17T22:49:36.640Z,15.18
2022-11-17T22:52:08.298Z,13.82
2022-11-17T22:54:38.492Z,11.60
2022-11-17T22:57:10.916Z,14.00
2022-11-17T22:59:40.743Z,13.95
2022-11-17T23:02:10.560Z,12.48
2022-11-17T23:04:40.459Z,11.60
2022-11-17T23:07:10.261Z,11.43
2022-11-17T23:09:40.114Z,12.57
2022-11-17T23:12:12.528Z,12.00
2022-11-17T23:14:42.310Z,12.90
2022-11-17T23:17:12.146Z,12.00
2022-11-17T23:19:42.600Z,10.88
2022-11-17T23:22:12.465Z,11.75
2022-11-17T23:24:42.312Z,9.13
2022-11-17T23:27:14.758Z,9.93
2022-11-17T23:29:44.614Z,9.82
2022-11-17T23:32:14.476Z,9.43
2022-11-17T23:34:44.342Z,8.10
2022-11-17T23:37:15.307Z,9.65
2022-11-17T23:39:45.383Z,11.32
2022-11-17T23:42:17.986Z,9.18
2022-11-17T23:44:47.863Z,9.75
2022-11-17T23:47:20.673Z,9.32
2022-11-17T23:49:50.540Z,9.63
2022-11-17T23:52:20.364Z,10.88
2022-11-17T23:54:50.233Z,11.07
2022-11-17T23:57:22.824Z,12.32
2022-11-17T23:59:52.669Z,11.50
